Time;durP1;ratioP1;P1;durP2;ratioP2;P2;SDS_P1;SDS_P2;PMS_P1;PMS_P2;Temp;Humidity;BMP_temperature;BMP_pressure;BME280_temperature;BME280_humidity;BME280_pressure;Samples;Min_cycle;Max_cycle;Signal;HPM_P1;HPM_P2
2023/06/23 00:00:59;;;;;;;1999.90;999.90;;;17.50;99.90;;;;;;5095079;28;20499;-70
2023/06/23 00:03:25;;;;;;;1999.90;999.90;;;17.50;99.90;;;;;;5095176;28;20239;-70
2023/06/23 00:05:51;;;;;;;1999.90;999.90;;;17.50;99.90;;;;;;5094948;28;20450;-70
2023/06/23 00:08:16;;;;;;;1999.90;999.90;;;17.50;99.90;;;;;;5095238;28;20166;-69
2023/06/23 00:10:43;;;;;;;1999.90;999.90;;;17.50;99.90;;;;;;5095073;28;20610;-70
2023/06/23 00:13:12;;;;;;;1999.90;999.90;;;17.50;99.90;;;;;;5094840;28;20180;-69
2023/06/23 00:15:37;;;;;;;1999.90;999.90;;;17.50;99.90;;;;;;5094941;28;20426;-69
2023/06/23 00:18:03;;;;;;;1999.90;999.90;;;17.50;99.90;;;;;;5094906;28;20414;-69
2023/06/23 00:20:28;;;;;;;1999.90;999.90;;;17.50;99.90;;;;;;5095102;28;20586;-70
2023/06/23 00:22:55;;;;;;;1999.90;999.90;;;17.40;99.90;;;;;;5094490;28;20186;-69
2023/06/23 00:25:21;;;;;;;1999.90;999.90;;;17.40;99.90;;;;;;5094774;28;20198;-71
2023/06/23 00:27:46;;;;;;;1999.90;999.90;;;17.40;99.90;;;;;;5094694;28;20486;-70
2023/06/23 00:30:13;;;;;;;1999.90;999.90;;;17.40;99.90;;;;;;5094815;28;20934;-69
2023/06/23 00:32:40;;;;;;;1999.90;999.90;;;17.40;99.90;;;;;;5094355;28;20247;-69
2023/06/23 00:35:07;;;;;;;1999.90;999.90;;;17.30;99.90;;;;;;5094793;28;20472;-69
2023/06/23 00:37:32;;;;;;;1999.90;999.90;;;17.30;99.90;;;;;;5094733;28;20435;-70
2023/06/23 00:39:58;;;;;;;1999.90;999.90;;;17.20;99.90;;;;;;5094489;28;20487;-69
2023/06/23 00:42:24;;;;;;;1999.90;999.90;;;17.20;99.90;;;;;;5094527;28;20686;-69
2023/06/23 00:44:50;;;;;;;1999.90;999.90;;;17.20;99.90;;;;;;5094341;28;20499;-69
2023/06/23 00:47:16;;;;;;;1999.90;999.90;;;17.20;99.90;;;;;;5094228;28;20447;-68
2023/06/23 00:49:44;;;;;;;1999.90;999.90;;;17.10;99.90;;;;;;5094243;28;20718;-69
2023/06/23 00:52:10;;;;;;;1999.90;999.90;;;17.10;99.90;;;;;;5094032;28;20740;-69
2023/06/23 00:54:36;;;;;;;1999.90;999.90;;;17.10;99.90;;;;;;5094166;28;20972;-69
2023/06/23 00:57:03;;;;;;;1999.90;999.90;;;17.10;99.90;;;;;;5094203;28;20415;-69
2023/06/23 00:59:29;;;;;;;1999.90;999.90;;;17.10;99.90;;;;;;5094233;28;20408;-69
2023/06/23 01:01:59;;;;;;;1999.90;999.90;;;17.00;99.90;;;;;;5093525;28;20415;-69
2023/06/23 01:04:29;;;;;;;1999.90;999.90;;;17.00;99.90;;;;;;5093421;28;20938;-69
2023/06/23 01:07:21;;;;;;;1999.90;999.90;;;17.00;99.90;;;;;;5093946;28;20501;-69
2023/06/23 01:10:05;;;;;;;1999.90;999.90;;;16.90;99.90;;;;;;5094031;28;20385;-69
2023/06/23 01:12:57;;;;;;;1999.90;999.90;;;16.90;99.90;;;;;;5093718;28;20875;-69
2023/06/23 01:15:34;;;;;;;1999.90;999.90;;;16.90;99.90;;;;;;5083162;28;20433;-69
2023/06/23 01:18:22;;;;;;;1999.90;999.90;;;16.90;99.90;;;;;;5093976;28;20406;-68
2023/06/23 01:20:49;;;;;;;1999.90;999.90;;;16.90;99.90;;;;;;5093640;28;20952;-68
2023/06/23 01:23:27;;;;;;;1999.90;999.90;;;16.90;99.90;;;;;;5093467;28;20476;-70
2023/06/23 01:26:05;;;;;;;1999.90;999.90;;;16.90;99.90;;;;;;5093379;28;20544;-69
2023/06/23 01:28:49;;;;;;;1999.90;999.90;;;16.90;99.90;;;;;;5093680;28;20406;-68
2023/06/23 01:31:22;;;;;;;1999.90;999.90;;;16.80;99.90;;;;;;5093212;28;20405;-69
2023/06/23 01:33:56;;;;;;;1999.90;999.90;;;16.80;99.90;;;;;;5093528;28;20484;-69
2023/06/23 01:36:32;;;;;;;1999.90;999.90;;;16.80;99.90;;;;;;5093497;28;20456;-69
2023/06/23 01:39:03;;;;;;;1999.90;999.90;;;16.80;99.90;;;;;;5093384;28;20508;-69
2023/06/23 01:41:42;;;;;;;1999.90;999.90;;;16.80;99.90;;;;;;5093007;28;20411;-69
2023/06/23 01:44:14;;;;;;;1999.90;999.90;;;16.70;99.90;;;;;;5093424;28;20406;-69
2023/06/23 01:46:46;;;;;;;1999.90;999.90;;;16.70;99.90;;;;;;5093338;28;20482;-69
2023/06/23 01:49:18;;;;;;;1999.90;999.90;;;16.70;99.90;;;;;;5093194;28;20403;-69
2023/06/23 01:51:46;;;;;;;1999.90;999.90;;;16.60;99.90;;;;;;5092865;28;20397;-69
2023/06/23 01:54:14;;;;;;;1999.90;999.90;;;16.60;99.90;;;;;;5093260;28;20434;-69
2023/06/23 01:56:41;;;;;;;1999.90;999.90;;;16.60;99.90;;;;;;5092983;28;20444;-69
2023/06/23 01:59:13;;;;;;;1999.90;999.90;;;16.60;99.90;;;;;;5093183;28;20417;-70
2023/06/23 02:01:42;;;;;;;1999.90;999.90;;;16.60;99.90;;;;;;5092738;28;20433;-69
2023/06/23 02:04:09;;;;;;;1999.90;999.90;;;16.50;99.90;;;;;;5092845;28;20432;-68
2023/06/23 02:06:37;;;;;;;1999.90;999.90;;;16.60;99.90;;;;;;5092771;28;20810;-68
2023/06/23 02:09:08;;;;;;;1999.90;999.90;;;16.60;99.90;;;;;;5092827;28;20493;-68
2023/06/23 02:11:35;;;;;;;1999.90;999.90;;;16.50;99.90;;;;;;5092481;28;20393;-68
2023/06/23 02:14:02;;;;;;;1999.90;999.90;;;16.50;99.90;;;;;;5092547;28;20401;-68
2023/06/23 02:16:30;;;;;;;1999.90;999.90;;;16.50;99.90;;;;;;5092724;28;20449;-67
2023/06/23 02:18:57;;;;;;;1999.90;999.90;;;16.50;99.90;;;;;;5092545;28;20405;-68
2023/06/23 02:21:24;;;;;;;1999.90;999.90;;;16.60;99.90;;;;;;5092559;28;20408;-68
2023/06/23 02:23:51;;;;;;;1999.90;999.90;;;16.60;99.90;;;;;;5092480;28;20463;-68
2023/06/23 02:26:17;;;;;;;1999.90;999.90;;;16.60;99.90;;;;;;5092413;28;20462;-68
2023/06/23 02:28:49;;;;;;;1999.90;999.90;;;16.50;99.90;;;;;;5092529;28;20497;-68
2023/06/23 02:31:23;;;;;;;1999.90;999.90;;;16.50;99.90;;;;;;5092249;28;20402;-68
2023/06/23 02:33:49;;;;;;;1999.90;999.90;;;16.50;99.90;;;;;;5092626;28;20493;-68
2023/06/23 02:36:20;;;;;;;1999.90;999.90;;;16.50;99.90;;;;;;5092252;28;20436;-68
2023/06/23 02:38:48;;;;;;;1999.90;999.90;;;16.50;99.90;;;;;;5092321;28;20909;-68
2023/06/23 02:41:16;;;;;;;1999.90;999.90;;;16.40;99.90;;;;;;5092080;28;20754;-68
2023/06/23 02:43:51;;;;;;;1999.90;999.90;;;16.40;99.90;;;;;;5092356;28;20872;-68
2023/06/23 02:46:22;;;;;;;1999.90;999.90;;;16.50;99.90;;;;;;5092129;28;20570;-68
2023/06/23 02:48:52;;;;;;;1999.90;999.90;;;16.50;99.90;;;;;;5092250;28;20401;-68
2023/06/23 02:51:21;;;;;;;1999.90;999.90;;;16.60;99.90;;;;;;5091913;28;20409;-68
2023/06/23 02:53:54;;;;;;;1999.90;999.90;;;16.60;99.90;;;;;;5092114;28;20404;-68
2023/06/23 02:56:23;;;;;;;1999.90;999.90;;;16.60;99.90;;;;;;5092122;28;20434;-68
2023/06/23 02:58:53;;;;;;;1999.90;999.90;;;16.60;99.90;;;;;;5092024;28;20491;-68
2023/06/23 03:01:22;;;;;;;1999.90;999.90;;;16.70;99.90;;;;;;5091828;28;20435;-69
2023/06/23 03:03:49;;;;;;;1999.90;999.90;;;16.60;99.90;;;;;;5092160;28;20447;-68
2023/06/23 03:06:19;;;;;;;1999.90;999.90;;;16.70;99.90;;;;;;5091856;28;20458;-67
2023/06/23 03:08:47;;;;;;;1999.90;999.90;;;16.60;99.90;;;;;;5092007;28;20805;-68
2023/06/23 03:11:16;;;;;;;1999.90;999.90;;;16.60;99.90;;;;;;5091578;28;20400;-68
2023/06/23 03:13:43;;;;;;;1999.90;999.90;;;16.60;99.90;;;;;;5091961;28;20483;-68
2023/06/23 03:16:15;;;;;;;1999.90;999.90;;;16.60;99.90;;;;;;5092049;28;20539;-68
2023/06/23 03:18:46;;;;;;;1999.90;999.90;;;16.60;99.90;;;;;;5092373;28;20505;-68
2023/06/23 03:21:13;;;;;;;1999.90;999.90;;;16.60;99.90;;;;;;5091596;28;20407;-68
2023/06/23 03:23:39;;;;;;;1999.90;999.90;;;16.60;99.90;;;;;;5091721;28;20430;-68
2023/06/23 03:26:08;;;;;;;1999.90;999.90;;;16.60;99.90;;;;;;5092840;28;20813;-68
2023/06/23 03:28:38;;;;;;;1999.90;999.90;;;16.60;99.90;;;;;;5095957;28;20166;-68
2023/06/23 03:31:09;;;;;;;1999.90;999.90;;;16.60;99.90;;;;;;5095646;28;20919;-68
2023/06/23 03:33:40;;;;;;;1999.90;999.90;;;16.60;99.90;;;;;;5095846;28;20404;-67
2023/06/23 03:36:13;;;;;;;1999.90;999.90;;;16.60;99.90;;;;;;5095692;28;20508;-68
2023/06/23 03:38:46;;;;;;;1999.90;999.90;;;16.60;99.90;;;;;;5095765;28;20411;-67
2023/06/23 03:41:13;;;;;;;1999.90;999.90;;;16.60;99.90;;;;;;5095405;28;20493;-67
2023/06/23 03:43:51;;;;;;;1999.90;999.90;;;16.50;99.90;;;;;;5095639;28;20405;-68
2023/06/23 03:46:24;;;;;;;1999.90;999.90;;;16.50;99.90;;;;;;5095406;28;20456;-68
2023/06/23 03:48:54;;;;;;;1999.90;999.90;;;16.40;99.90;;;;;;5095595;28;20536;-67
2023/06/23 03:51:21;;;;;;;1999.90;999.90;;;16.40;99.90;;;;;;5095220;28;20398;-67
2023/06/23 03:53:50;;;;;;;1999.90;999.90;;;16.40;99.90;;;;;;5095389;28;20486;-67
2023/06/23 03:56:17;;;;;;;1999.90;999.90;;;16.40;99.90;;;;;;5095292;28;20836;-67
2023/06/23 03:58:45;;;;;;;1999.90;999.90;;;16.30;99.90;;;;;;5095495;28;20774;-67
2023/06/23 04:01:12;;;;;;;1999.90;999.90;;;16.40;99.90;;;;;;5094892;28;20413;-67
2023/06/23 04:03:40;;;;;;;1999.90;999.90;;;16.30;99.90;;;;;;5095240;28;20408;-67
2023/06/23 04:06:08;;;;;;;1999.90;999.90;;;16.30;99.90;;;;;;5094983;28;21063;-67
2023/06/23 04:08:35;;;;;;;1999.90;999.90;;;16.30;99.90;;;;;;5095081;28;20452;-67
2023/06/23 04:11:03;;;;;;;1999.90;999.90;;;16.30;99.90;;;;;;5094907;28;20452;-67
2023/06/23 04:13:31;;;;;;;1999.90;999.90;;;16.30;99.90;;;;;;5094977;28;20406;-67
2023/06/23 04:15:58;;;;;;;1999.90;999.90;;;16.30;99.90;;;;;;5094897;28;20425;-68
2023/06/23 04:18:26;;;;;;;1999.90;999.90;;;16.30;99.90;;;;;;5095021;28;20517;-67
2023/06/23 04:20:55;;;;;;;1999.90;999.90;;;16.30;99.90;;;;;;5094757;28;20493;-67
2023/06/23 04:23:22;;;;;;;1999.90;999.90;;;16.30;99.90;;;;;;5094740;28;20836;-67
2023/06/23 04:25:50;;;;;;;1999.90;999.90;;;16.30;99.90;;;;;;5094701;28;20451;-67
2023/06/23 04:28:19;;;;;;;1999.90;999.90;;;16.40;99.90;;;;;;5094691;28;20412;-67
2023/06/23 04:30:45;;;;;;;1999.90;999.90;;;16.30;99.90;;;;;;5094985;28;20986;-67
2023/06/23 04:33:11;;;;;;;1999.90;999.90;;;16.30;99.90;;;;;;5094552;28;20397;-67
2023/06/23 04:35:37;;;;;;;1999.90;999.90;;;16.30;99.90;;;;;;5094548;28;20839;-67
2023/06/23 04:38:11;;;;;;;1999.90;999.90;;;16.30;99.90;;;;;;5093200;28;20399;-67
2023/06/23 04:40:41;;;;;;;1999.90;999.90;;;16.30;99.90;;;;;;5094563;28;20177;-67
2023/06/23 04:43:13;;;;;;;1999.90;999.90;;;16.30;99.90;;;;;;5094175;28;20410;-67
2023/06/23 04:45:54;;;;;;;1999.90;999.90;;;16.20;99.90;;;;;;5094506;28;20459;-67
2023/06/23 04:48:24;;;;;;;1999.90;999.90;;;16.20;99.90;;;;;;5094426;28;20759;-67
2023/06/23 04:50:54;;;;;;;1999.90;999.90;;;16.20;99.90;;;;;;5094343;28;20414;-67
2023/06/23 04:53:22;;;;;;;1999.90;999.90;;;16.20;99.90;;;;;;5094305;28;20448;-67
2023/06/23 04:55:53;;;;;;;1999.90;999.90;;;16.20;99.90;;;;;;5094130;28;20421;-67
2023/06/23 04:58:22;;;;;;;1999.90;999.90;;;16.20;99.90;;;;;;5094237;28;20408;-67
2023/06/23 05:00:50;;;;;;;1999.90;999.90;;;16.20;99.90;;;;;;5094198;28;20411;-67
2023/06/23 05:03:17;;;;;;;1999.90;999.90;;;16.20;99.90;;;;;;5093999;28;20474;-67
2023/06/23 05:05:44;;;;;;;1999.90;999.90;;;16.20;99.90;;;;;;5093807;28;20486;-69
2023/06/23 05:08:12;;;;;;;1999.90;999.90;;;16.20;99.90;;;;;;5094013;28;20407;-69
2023/06/23 05:10:40;;;;;;;1999.90;999.90;;;16.20;99.90;;;;;;5093704;28;20401;-68
2023/06/23 05:13:10;;;;;;;1999.90;999.90;;;16.20;99.90;;;;;;5093717;28;20414;-68
2023/06/23 05:15:36;;;;;;;1999.90;999.90;;;16.20;99.90;;;;;;5093756;28;20409;-68
2023/06/23 05:18:03;;;;;;;1999.90;999.90;;;16.20;99.90;;;;;;5093787;28;20408;-68
2023/06/23 05:20:30;;;;;;;1999.90;999.90;;;16.20;99.90;;;;;;5093730;28;20409;-69
2023/06/23 05:22:58;;;;;;;1999.90;999.90;;;16.20;99.90;;;;;;5093345;28;20463;-68
2023/06/23 05:25:29;;;;;;;1999.90;999.90;;;16.20;99.90;;;;;;5093488;28;20427;-69
2023/06/23 05:27:59;;;;;;;1999.90;999.90;;;16.30;99.90;;;;;;5093641;28;20400;-68
2023/06/23 05:30:27;;;;;;;1999.90;999.90;;;16.30;99.90;;;;;;5093585;28;20774;-68
2023/06/23 05:32:55;;;;;;;1999.90;999.90;;;16.30;99.90;;;;;;5093182;28;20399;-68
2023/06/23 05:35:22;;;;;;;1999.90;999.90;;;16.30;99.90;;;;;;5093380;28;20509;-68
2023/06/23 05:37:49;;;;;;;1999.90;999.90;;;16.30;99.90;;;;;;5093402;28;20439;-68
2023/06/23 05:40:15;;;;;;;1999.90;999.90;;;16.30;99.90;;;;;;5093349;28;20412;-68
2023/06/23 05:42:42;;;;;;;1999.90;999.90;;;16.30;99.90;;;;;;5093133;28;20400;-68
2023/06/23 05:45:09;;;;;;;1999.90;999.90;;;16.30;99.90;;;;;;5093185;28;20422;-68
2023/06/23 05:47:42;;;;;;;1999.90;999.90;;;16.30;99.90;;;;;;5093591;28;20427;-68
2023/06/23 05:50:21;;;;;;;1999.90;999.90;;;16.40;99.90;;;;;;5092939;28;20396;-68
2023/06/23 05:52:55;;;;;;;1999.90;999.90;;;16.50;99.90;;;;;;5092848;28;20399;-69
2023/06/23 05:55:22;;;;;;;1999.90;999.90;;;16.40;99.90;;;;;;5093186;28;20467;-68
2023/06/23 05:57:52;;;;;;;1999.90;999.90;;;16.60;99.90;;;;;;5093028;28;20400;-68
2023/06/23 06:00:19;;;;;;;1999.90;999.90;;;16.60;99.90;;;;;;5093255;28;20906;-69
2023/06/23 06:02:48;;;;;;;1999.90;999.90;;;16.60;99.90;;;;;;5092736;28;20399;-68
2023/06/23 06:05:18;;;;;;;1999.90;999.90;;;16.60;99.90;;;;;;5092671;28;20426;-68
2023/06/23 06:07:47;;;;;;;1999.90;999.90;;;16.70;99.90;;;;;;5092929;28;20418;-69
2023/06/23 06:10:15;;;;;;;1999.90;999.90;;;16.70;99.90;;;;;;5092877;28;20394;-69
2023/06/23 06:12:44;;;;;;;1999.90;999.90;;;16.70;99.90;;;;;;5092756;28;20404;-69
2023/06/23 06:15:11;;;;;;;1999.90;999.90;;;16.80;99.90;;;;;;5092634;28;20481;-67
2023/06/23 06:17:39;;;;;;;1999.90;999.90;;;16.90;99.90;;;;;;5092686;28;20412;-69
2023/06/23 06:20:06;;;;;;;1999.90;999.90;;;16.90;99.90;;;;;;5092619;28;20417;-68
2023/06/23 06:22:36;;;;;;;1999.90;999.90;;;17.10;99.90;;;;;;5092177;28;20840;-69
2023/06/23 06:25:05;;;;;;;1999.90;999.90;;;17.10;99.90;;;;;;5092477;28;20437;-68
2023/06/23 06:27:33;;;;;;;1999.90;999.90;;;17.10;99.90;;;;;;5092488;28;20462;-67
2023/06/23 06:30:02;;;;;;;1999.90;999.90;;;17.20;99.90;;;;;;5092700;28;20519;-68
2023/06/23 06:32:29;;;;;;;1999.90;999.90;;;17.20;99.90;;;;;;5092160;28;20892;-67
2023/06/23 06:34:57;;;;;;;1999.90;999.90;;;17.30;99.90;;;;;;5092351;28;20445;-67
2023/06/23 06:37:25;;;;;;;1999.90;999.90;;;17.40;99.90;;;;;;5092252;28;20499;-67
2023/06/23 06:39:51;;;;;;;1999.90;999.90;;;17.50;99.90;;;;;;5092602;28;20575;-67
2023/06/23 06:42:18;;;;;;;1999.90;999.90;;;17.60;99.90;;;;;;5092025;28;20465;-67
2023/06/23 06:44:43;;;;;;;1999.90;999.90;;;17.60;99.90;;;;;;5092260;28;20994;-67
2023/06/23 06:47:11;;;;;;;1999.90;999.90;;;17.60;99.90;;;;;;5092146;28;20462;-67
2023/06/23 06:49:39;;;;;;;1999.90;999.90;;;17.60;99.90;;;;;;5092205;28;20180;-67
2023/06/23 06:52:06;;;;;;;1999.90;999.90;;;17.60;99.90;;;;;;5091943;28;20397;-67
2023/06/23 06:54:33;;;;;;;1999.90;999.90;;;17.60;99.90;;;;;;5092081;28;20781;-67
2023/06/23 06:56:58;;;;;;;1999.90;999.90;;;17.60;99.90;;;;;;5092504;28;20406;-67
2023/06/23 06:59:24;;;;;;;1999.90;999.90;;;17.80;99.90;;;;;;5092121;28;20454;-67
2023/06/23 07:01:50;;;;;;;1999.90;999.90;;;17.90;99.90;;;;;;5091026;28;20171;-67
2023/06/23 07:04:16;;;;;;;1999.90;999.90;;;18.10;99.90;;;;;;5091918;28;20170;-67
2023/06/23 07:06:41;;;;;;;1999.90;999.90;;;18.20;99.90;;;;;;5091959;28;20331;-67
2023/06/23 07:09:07;;;;;;;1999.90;999.90;;;18.30;99.90;;;;;;5092219;28;20484;-67
2023/06/23 07:11:33;;;;;;;1999.90;999.90;;;18.20;99.90;;;;;;5091779;28;20275;-67
2023/06/23 07:13:59;;;;;;;1999.90;999.90;;;18.30;99.90;;;;;;5091989;28;20173;-67
2023/06/23 07:16:30;;;;;;;1999.90;999.90;;;18.40;99.90;;;;;;5091787;28;20222;-67
2023/06/23 07:18:56;;;;;;;1999.90;999.90;;;18.50;99.90;;;;;;5091920;28;20418;-67
2023/06/23 07:21:22;;;;;;;1999.90;999.90;;;18.50;99.90;;;;;;5091626;28;20474;-67
2023/06/23 07:23:47;;;;;;;1999.90;999.90;;;18.40;99.90;;;;;;5091849;28;20440;-67
2023/06/23 07:26:13;;;;;;;1999.90;999.90;;;18.60;99.90;;;;;;5091694;28;20210;-67
2023/06/23 07:28:38;;;;;;;1999.90;999.90;;;18.70;99.90;;;;;;5091822;28;20245;-67
2023/06/23 07:31:05;;;;;;;1999.90;999.90;;;18.80;99.90;;;;;;5091559;28;20213;-68
2023/06/23 07:33:30;;;;;;;1999.90;999.90;;;19.00;99.90;;;;;;5091664;28;20177;-67
2023/06/23 07:35:56;;;;;;;1999.90;999.90;;;19.10;99.90;;;;;;5091729;28;20424;-67
2023/06/23 07:38:21;;;;;;;1999.90;999.90;;;19.20;99.90;;;;;;5091788;28;20178;-67
2023/06/23 07:40:47;;;;;;;1999.90;999.90;;;19.20;99.90;;;;;;5091707;28;20181;-67
2023/06/23 07:43:13;;;;;;;1999.90;999.90;;;19.10;99.90;;;;;;5091562;28;20257;-67
2023/06/23 07:45:39;;;;;;;1999.90;999.90;;;19.20;99.90;;;;;;5090813;28;20235;-67
2023/06/23 07:48:04;;;;;;;1999.90;999.90;;;19.20;99.90;;;;;;5091507;28;20165;-67
2023/06/23 07:50:30;;;;;;;1999.90;999.90;;;19.40;99.90;;;;;;5091565;28;20434;-67
2023/06/23 07:52:56;;;;;;;1999.90;999.90;;;19.60;99.90;;;;;;5091365;28;20169;-67
2023/06/23 07:55:22;;;;;;;1999.90;999.90;;;19.70;99.90;;;;;;5091580;28;20193;-67
2023/06/23 07:57:48;;;;;;;1999.90;999.90;;;19.60;99.90;;;;;;5091656;28;20219;-67
2023/06/23 08:00:15;;;;;;;1999.90;999.90;;;19.60;99.90;;;;;;5091562;28;20748;-68
2023/06/23 08:02:41;;;;;;;1999.90;999.90;;;19.60;99.90;;;;;;5091193;28;20411;-68
2023/06/23 08:05:08;;;;;;;1999.90;999.90;;;19.60;99.90;;;;;;5091353;28;20507;-67
2023/06/23 08:07:33;;;;;;;1999.90;999.90;;;19.60;99.90;;;;;;5091399;28;20467;-68
2023/06/23 08:09:59;;;;;;;1999.90;999.90;;;19.70;99.90;;;;;;5091414;28;20413;-67
2023/06/23 08:12:24;;;;;;;1999.90;999.90;;;19.80;99.90;;;;;;5092831;28;20204;-68
2023/06/23 08:14:50;;;;;;;1999.90;999.90;;;19.90;99.90;;;;;;5094938;28;20187;-69
2023/06/23 08:17:16;;;;;;;1999.90;999.90;;;19.80;99.90;;;;;;5091314;28;20175;-66
2023/06/23 08:19:43;;;;;;;1999.90;999.90;;;19.70;99.90;;;;;;5094357;28;20238;-68
2023/06/23 08:22:09;;;;;;;1999.90;999.90;;;19.90;99.90;;;;;;5093563;28;20557;-68
2023/06/23 08:24:35;;;;;;;1999.90;999.90;;;20.10;99.90;;;;;;5094029;28;20429;-68
2023/06/23 08:27:00;;;;;;;1999.90;999.90;;;20.10;99.90;;;;;;5094147;28;20194;-69
2023/06/23 08:29:26;;;;;;;1999.90;999.90;;;20.10;99.90;;;;;;5094084;28;20197;-67
2023/06/23 08:31:52;;;;;;;1999.90;999.90;;;20.10;99.90;;;;;;5093681;28;20194;-67
2023/06/23 08:34:18;;;;;;;1999.90;999.90;;;20.20;99.90;;;;;;5094453;28;20269;-67
2023/06/23 08:36:44;;;;;;;1999.90;999.90;;;20.40;99.90;;;;;;5094065;28;20443;-69
2023/06/23 08:39:10;;;;;;;1999.90;999.90;;;20.70;99.90;;;;;;5093575;28;20178;-67
2023/06/23 08:41:39;;;;;;;1999.90;999.90;;;21.00;99.90;;;;;;5093770;28;20907;-68
2023/06/23 08:44:06;;;;;;;1999.90;999.90;;;21.10;99.90;;;;;;5093869;28;20190;-68
2023/06/23 08:46:35;;;;;;;1999.90;999.90;;;21.20;99.90;;;;;;5093555;28;20464;-68
2023/06/23 08:49:06;;;;;;;1999.90;999.90;;;21.20;99.90;;;;;;5094144;28;20819;-68
2023/06/23 08:51:33;;;;;;;1999.90;999.90;;;21.30;99.90;;;;;;5093729;28;20895;-68
2023/06/23 08:53:59;;;;;;;1999.90;999.90;;;21.40;99.90;;;;;;5093131;28;20461;-67
2023/06/23 08:56:26;;;;;;;1999.90;999.90;;;21.40;99.90;;;;;;5093884;28;20429;-67
2023/06/23 08:58:51;;;;;;;1999.90;999.90;;;21.40;99.90;;;;;;5093897;28;20413;-68
2023/06/23 09:01:17;;;;;;;1999.90;999.90;;;21.40;99.90;;;;;;5093176;28;20419;-68
2023/06/23 09:03:43;;;;;;;1999.90;999.90;;;21.40;99.90;;;;;;5093494;28;20175;-67
2023/06/23 09:06:09;;;;;;;1999.90;999.90;;;21.00;99.90;;;;;;5093402;28;20688;-69
2023/06/23 09:08:35;;;;;;;1999.90;999.90;;;21.00;99.90;;;;;;5093355;28;20761;-68
2023/06/23 09:11:00;;;;;;;1999.90;999.90;;;21.20;99.90;;;;;;5093418;28;20459;-68
2023/06/23 09:13:30;;;;;;;1999.90;999.90;;;21.30;99.90;;;;;;5093678;28;20258;-68
2023/06/23 09:15:56;;;;;;;1999.90;999.90;;;21.40;99.90;;;;;;5093005;28;20203;-68
2023/06/23 09:18:22;;;;;;;1999.90;999.90;;;21.60;99.90;;;;;;5093465;28;20429;-69
2023/06/23 09:20:50;;;;;;;1999.90;999.90;;;21.50;99.90;;;;;;5094053;28;20396;-67
2023/06/23 09:23:18;;;;;;;1999.90;999.90;;;21.50;99.90;;;;;;5092123;28;20434;-67
2023/06/23 09:25:51;;;;;;;1999.90;999.90;;;21.60;99.90;;;;;;5093204;28;20559;-67
2023/06/23 09:28:23;;;;;;;1999.90;999.90;;;21.70;99.90;;;;;;5093255;28;20404;-68
2023/06/23 09:30:49;;;;;;;1999.90;999.90;;;21.70;99.90;;;;;;5093327;28;20395;-67
2023/06/23 09:33:18;;;;;;;1999.90;999.90;;;21.80;99.90;;;;;;5093241;28;20426;-67
2023/06/23 09:35:51;;;;;;;1999.90;999.90;;;21.90;99.90;;;;;;5093244;28;20442;-67
2023/06/23 09:38:21;;;;;;;1999.90;999.90;;;21.60;99.90;;;;;;5093361;28;20407;-67
2023/06/23 09:40:46;;;;;;;1999.90;999.90;;;21.50;99.90;;;;;;5093085;28;20771;-66
2023/06/23 09:43:14;;;;;;;1999.90;999.90;;;21.20;99.90;;;;;;5092860;28;20421;-67
2023/06/23 09:45:39;;;;;;;1999.90;999.90;;;21.10;99.90;;;;;;5092580;28;20260;-67
2023/06/23 09:48:15;;;;;;;1999.90;999.90;;;21.20;99.90;;;;;;5093046;28;20898;-67
2023/06/23 09:50:42;;;;;;;1999.90;999.90;;;21.40;99.90;;;;;;5093077;28;20181;-67
2023/06/23 09:53:08;;;;;;;1999.90;999.90;;;21.40;99.90;;;;;;5092345;28;20413;-67
2023/06/23 09:55:34;;;;;;;1999.90;999.90;;;21.60;99.90;;;;;;5093285;28;20484;-68
2023/06/23 09:58:03;;;;;;;1999.90;999.90;;;21.90;99.90;;;;;;5093025;28;20399;-67
2023/06/23 10:00:32;;;;;;;1999.90;999.90;;;22.00;99.90;;;;;;5092382;28;20173;-67
2023/06/23 10:02:59;;;;;;;1999.90;999.90;;;22.10;99.90;;;;;;5092547;28;20408;-67
2023/06/23 10:05:25;;;;;;;1999.90;999.90;;;22.40;99.90;;;;;;5092382;28;20420;-66
2023/06/23 10:08:06;;;;;;;1999.90;999.90;;;22.40;99.90;;;;;;5092603;28;20418;-68
2023/06/23 10:10:32;;;;;;;1999.90;999.90;;;22.70;99.90;;;;;;5092745;28;20177;-67
2023/06/23 10:12:58;;;;;;;1999.90;999.90;;;22.80;99.90;;;;;;5092370;28;20801;-69
2023/06/23 10:15:24;;;;;;;1999.90;999.90;;;22.90;99.90;;;;;;5091907;28;20420;-68
2023/06/23 10:17:51;;;;;;;1999.90;999.90;;;22.90;99.90;;;;;;5092370;28;20231;-68
2023/06/23 10:20:16;;;;;;;1999.90;999.90;;;23.00;99.90;;;;;;5092300;28;20458;-69
2023/06/23 10:22:44;;;;;;;1999.90;999.90;;;22.90;99.90;;;;;;5091536;28;20897;-68
2023/06/23 10:25:11;;;;;;;1999.90;999.90;;;22.70;99.90;;;;;;5092330;28;20232;-68
2023/06/23 10:27:37;;;;;;;1999.90;999.90;;;22.90;99.90;;;;;;5092301;28;20455;-69
2023/06/23 10:30:03;;;;;;;1999.90;999.90;;;22.90;99.90;;;;;;5091704;28;20755;-68
2023/06/23 10:32:32;;;;;;;1999.90;999.90;;;22.80;99.90;;;;;;5091889;28;20426;-67
2023/06/23 10:35:03;;;;;;;1999.90;999.90;;;22.70;99.90;;;;;;5091981;28;20859;-69
2023/06/23 10:37:30;;;;;;;1999.90;999.90;;;22.90;99.90;;;;;;5091705;28;20416;-68
2023/06/23 10:40:08;;;;;;;1999.90;999.90;;;23.00;99.90;;;;;;5092136;28;21187;-69
2023/06/23 10:42:37;;;;;;;1999.90;999.90;;;22.90;99.90;;;;;;5091402;28;20427;-68
2023/06/23 10:45:03;;;;;;;1999.90;999.90;;;23.00;99.90;;;;;;5091473;28;20437;-68
2023/06/23 10:47:28;;;;;;;1999.90;999.90;;;23.10;99.90;;;;;;5091859;28;20448;-67
2023/06/23 10:49:56;;;;;;;1999.90;999.90;;;23.00;99.90;;;;;;5091976;28;20778;-68
2023/06/23 10:52:22;;;;;;;1999.90;999.90;;;23.10;99.90;;;;;;5091142;28;20180;-67
2023/06/23 10:54:47;;;;;;;1999.90;999.90;;;23.40;99.90;;;;;;5091853;28;20410;-67
2023/06/23 10:57:14;;;;;;;1999.90;999.90;;;23.40;99.90;;;;;;5091771;28;20409;-68
2023/06/23 10:59:59;;;;;;;1999.90;999.90;;;23.40;99.90;;;;;;5091241;28;20173;-67
2023/06/23 11:02:25;;;;;;;1999.90;999.90;;;23.30;99.90;;;;;;5091802;28;20408;-68
2023/06/23 11:04:55;;;;;;;1999.90;999.90;;;23.60;99.90;;;;;;5086226;28;20512;-68
2023/06/23 11:07:21;;;;;;;1999.90;999.90;;;23.50;99.90;;;;;;5078937;28;20486;-68
2023/06/23 11:10:01;;;;;;;1999.90;999.90;;;23.70;99.90;;;;;;5086651;28;20403;-67
2023/06/23 11:12:36;;;;;;;1999.90;999.90;;;23.90;99.90;;;;;;5090621;28;20408;-67
2023/06/23 11:15:20;;;;;;;1999.90;999.90;;;23.90;99.90;;;;;;5091136;28;20454;-67
2023/06/23 11:17:50;;;;;;;1999.90;999.90;;;23.70;99.90;;;;;;5084515;28;20399;-67
2023/06/23 11:20:19;;;;;;;1999.90;999.90;;;23.70;99.90;;;;;;5090927;28;20914;-67
2023/06/23 11:23:13;;;;;;;1999.90;999.90;;;23.70;99.90;;;;;;5096595;28;20423;-67
2023/06/23 11:25:44;;;;;;;1999.90;999.90;;;23.90;99.90;;;;;;5084103;28;20416;-67
2023/06/23 11:28:34;;;;;;;1999.90;999.90;;;24.10;99.90;;;;;;5090909;28;20405;-67
2023/06/23 11:31:16;;;;;;;1999.90;999.90;;;24.00;99.90;;;;;;5091157;28;20416;-67
2023/06/23 11:33:55;;;;;;;1999.90;999.90;;;24.00;99.90;;;;;;5091571;28;20488;-67
2023/06/23 11:36:24;;;;;;;1999.90;999.90;;;24.10;99.90;;;;;;5090928;28;20420;-67
2023/06/23 11:38:50;;;;;;;1999.90;999.90;;;24.30;99.90;;;;;;5094843;28;20385;-67
2023/06/23 11:41:27;;;;;;;1999.90;999.90;;;24.30;99.90;;;;;;5091347;28;20486;-67
2023/06/23 11:44:00;;;;;;;1999.90;999.90;;;24.60;99.90;;;;;;5090030;28;20829;-67
2023/06/23 11:46:26;;;;;;;1999.90;999.90;;;24.80;99.90;;;;;;5090093;28;20452;-67
2023/06/23 11:48:53;;;;;;;1999.90;999.90;;;24.60;99.90;;;;;;5094339;28;20416;-67
2023/06/23 11:51:21;;;;;;;1999.90;999.90;;;24.90;99.90;;;;;;5094246;28;20403;-68
2023/06/23 11:53:49;;;;;;;1999.90;999.90;;;24.90;99.90;;;;;;5093973;28;20404;-67
2023/06/23 11:56:17;;;;;;;1999.90;999.90;;;24.80;99.90;;;;;;5094630;28;20749;-67
2023/06/23 11:58:56;;;;;;;1999.90;999.90;;;24.80;99.90;;;;;;5094279;28;20655;-67
2023/06/23 12:01:23;;;;;;;1999.90;999.90;;;25.00;99.90;;;;;;5094662;28;20411;-67
2023/06/23 12:03:49;;;;;;;1999.90;999.90;;;25.40;99.90;;;;;;5094915;28;20466;-67
2023/06/23 12:06:17;;;;;;;1999.90;999.90;;;25.60;99.90;;;;;;5094181;28;20426;-67